Time;durP1;ratioP1;P1;durP2;ratioP2;P2;SDS_P1;SDS_P2;PMS_P1;PMS_P2;Temp;Humidity;BMP_temperature;BMP_pressure;BME280_temperature;BME280_humidity;BME280_pressure;Samples;Min_cycle;Max_cycle;Signal;HPM_P1;HPM_P2
2021/04/16 00:02:05;;;;;;;4.30;3.10;;;;;;;3.58;73.55;100664.50;5071944;27;100954;-74
2021/04/16 00:04:31;;;;;;;5.47;3.47;;;;;;;3.55;73.63;100659.31;5050718;27;101010;-75
2021/04/16 00:06:56;;;;;;;4.17;2.67;;;;;;;3.51;73.46;100665.34;5063937;27;97189;-78
2021/04/16 00:09:23;;;;;;;3.43;2.70;;;;;;;3.52;73.90;100663.63;5051213;27;97040;-82
2021/04/16 00:11:49;;;;;;;4.03;3.00;;;;;;;3.55;73.83;100664.50;5034878;27;101096;-74
2021/04/16 00:14:14;;;;;;;5.50;3.27;;;;;;;3.58;73.89;100669.69;5050303;27;101107;-74
2021/04/16 00:16:40;;;;;;;4.40;3.10;;;;;;;3.64;73.47;100668.81;5045442;27;97202;-74
2021/04/16 00:19:06;;;;;;;3.97;3.20;;;;;;;3.62;73.57;100658.44;5051876;27;96954;-74
2021/04/16 00:21:32;;;;;;;4.10;3.33;;;;;;;3.65;73.14;100660.16;5054602;27;97830;-75
2021/04/16 00:23:58;;;;;;;3.83;2.93;;;;;;;3.61;73.31;100658.44;5058582;27;97840;-74
2021/04/16 00:26:23;;;;;;;4.47;3.30;;;;;;;3.54;73.69;100649.78;5070954;27;97238;-75
2021/04/16 00:28:49;;;;;;;4.53;3.13;;;;;;;3.56;73.67;100658.44;5051900;27;96853;-75
2021/04/16 00:31:19;;;;;;;3.43;2.90;;;;;;;3.64;73.26;100661.03;5050493;27;101008;-74
2021/04/16 00:33:44;;;;;;;4.90;3.70;;;;;;;3.59;73.72;100660.16;5050929;27;98355;-74
2021/04/16 00:36:11;;;;;;;5.13;3.70;;;;;;;3.61;73.33;100656.72;5064117;27;96885;-74
2021/04/16 00:38:37;;;;;;;4.97;3.43;;;;;;;3.52;73.74;100654.13;5034029;27;97104;-74
2021/04/16 00:41:06;;;;;;;6.87;4.33;;;;;;;3.60;73.77;100649.75;5064071;27;97488;-74
2021/04/16 00:43:34;;;;;;;5.30;4.10;;;;;;;3.59;74.03;100642.00;5053733;27;101668;-75
2021/04/16 00:46:22;;;;;;;5.30;3.80;;;;;;;3.62;73.73;100639.41;5071431;27;96845;-75
2021/04/16 00:48:58;;;;;;;6.43;4.57;;;;;;;3.61;73.34;100641.13;5052504;27;96823;-74
2021/04/16 00:51:31;;;;;;;5.73;4.43;;;;;;;3.61;73.83;100645.47;5051061;27;102226;-75
2021/04/16 00:53:58;;;;;;;5.80;4.83;;;;;;;3.59;73.84;100639.41;5051432;27;101133;-75
2021/04/16 00:56:24;;;;;;;7.43;4.90;;;;;;;3.62;73.59;100640.25;5049909;27;97186;-75
2021/04/16 00:58:50;;;;;;;5.90;4.83;;;;;;;3.63;73.63;100630.72;5043326;27;96919;-74
2021/04/16 01:01:16;;;;;;;6.93;6.10;;;;;;;3.61;73.43;100632.47;5051981;27;101207;-74
2021/04/16 01:03:41;;;;;;;8.03;6.17;;;;;;;3.61;73.92;100633.34;5049917;27;97360;-74
2021/04/16 01:06:08;;;;;;;7.87;5.90;;;;;;;3.53;73.62;100636.81;5038829;27;96744;-74
2021/04/16 01:08:34;;;;;;;9.23;5.80;;;;;;;3.49;74.14;100635.06;5057669;27;97384;-74
2021/04/16 01:11:01;;;;;;;7.37;6.63;;;;;;;3.53;73.87;100636.81;5038332;27;101606;-74
2021/04/16 01:13:26;;;;;;;8.43;6.57;;;;;;;3.58;73.61;100642.88;5067859;27;97433;-77
2021/04/16 01:15:57;;;;;;;7.53;6.03;;;;;;;3.52;73.46;100638.53;5075430;27;97059;-74
2021/04/16 01:18:25;;;;;;;7.53;6.27;;;;;;;3.51;73.83;100634.19;5058415;27;96983;-81
2021/04/16 01:20:53;;;;;;;7.90;6.50;;;;;;;3.57;73.81;100635.94;5053679;27;98036;-74
2021/04/16 01:23:24;;;;;;;7.60;6.23;;;;;;;3.55;73.51;100637.66;5048166;27;101215;-75
2021/04/16 01:25:50;;;;;;;6.75;6.03;;;;;;;3.48;73.47;100636.78;5066468;27;96858;-74
2021/04/16 01:28:16;;;;;;;6.80;6.07;;;;;;;3.53;73.82;100632.47;5049285;27;97202;-74
2021/04/16 01:31:03;;;;;;;6.60;5.60;;;;;;;3.52;73.76;100638.53;5048843;27;97864;-74
2021/04/16 01:33:31;;;;;;;7.57;5.67;;;;;;;3.50;73.93;100639.41;5070907;27;100743;-75
2021/04/16 01:35:57;;;;;;;7.83;6.00;;;;;;;3.53;73.82;100635.06;5053889;27;96999;-79
2021/04/16 01:38:24;;;;;;;6.57;5.87;;;;;;;3.52;73.62;100633.34;5051936;27;96914;-82
2021/04/16 01:40:50;;;;;;;7.53;6.10;;;;;;;3.49;73.76;100629.88;5057855;27;101194;-74
2021/04/16 01:43:39;;;;;;;7.57;5.33;;;;;;;3.48;74.12;100628.16;5039304;27;100683;-74
2021/04/16 01:46:10;;;;;;;6.97;5.73;;;;;;;3.49;74.20;100624.69;5068310;27;96720;-74
2021/04/16 01:48:41;;;;;;;6.87;5.43;;;;;;;3.49;74.09;100630.75;5039960;27;97326;-74
2021/04/16 01:51:11;;;;;;;6.20;5.23;;;;;;;3.50;74.04;100626.44;5058027;27;97937;-74
2021/04/16 01:53:37;;;;;;;7.23;5.53;;;;;;;3.54;73.69;100618.63;5039680;27;100640;-74
2021/04/16 01:56:03;;;;;;;6.80;5.57;;;;;;;3.54;73.93;100615.16;5057398;27;96765;-73
2021/04/16 01:58:29;;;;;;;6.57;5.10;;;;;;;3.60;74.00;100613.41;5030612;27;96897;-73
2021/04/16 02:00:55;;;;;;;5.23;4.73;;;;;;;3.55;73.98;100619.47;5036069;27;101443;-73
2021/04/16 02:03:20;;;;;;;5.17;4.60;;;;;;;3.53;74.00;100616.91;5057859;27;101520;-73
2021/04/16 02:05:46;;;;;;;6.97;4.93;;;;;;;3.53;73.80;100616.91;5057014;27;96854;-73
2021/04/16 02:08:12;;;;;;;7.37;5.30;;;;;;;3.52;73.95;100622.97;5054397;27;96830;-73
2021/04/16 02:10:37;;;;;;;5.70;4.60;;;;;;;3.53;73.86;100627.28;5055854;27;100957;-74
2021/04/16 02:13:05;;;;;;;10.50;5.10;;;;;;;3.54;73.85;100613.44;5055792;27;100609;-74
2021/04/16 02:15:30;;;;;;;7.20;5.10;;;;;;;3.52;74.15;100617.78;5026299;27;97137;-73
2021/04/16 02:17:56;;;;;;;5.77;4.33;;;;;;;3.46;73.97;100620.38;5053321;27;96892;-75
2021/04/16 02:20:23;;;;;;;7.63;5.30;;;;;;;3.52;73.98;100611.69;5054155;27;99131;-73
2021/04/16 02:22:49;;;;;;;7.00;5.00;;;;;;;3.52;74.06;100615.19;5057470;27;97878;-73
2021/04/16 02:25:15;;;;;;;5.97;4.63;;;;;;;3.46;74.60;100617.78;5057030;27;96815;-73
2021/04/16 02:27:41;;;;;;;6.57;4.67;;;;;;;3.48;74.03;100621.22;5057135;27;96991;-73
2021/04/16 02:30:15;;;;;;;6.20;4.47;;;;;;;3.49;73.95;100620.38;5074366;27;98210;-73
2021/04/16 02:32:40;;;;;;;6.27;4.83;;;;;;;3.51;74.31;100622.97;5043574;27;100322;-74
2021/04/16 02:35:07;;;;;;;7.27;4.50;;;;;;;3.49;74.29;100625.56;5072067;27;97073;-73
2021/04/16 02:37:32;;;;;;;5.43;4.23;;;;;;;3.57;73.81;100628.13;5092156;27;96763;-74
2021/04/16 02:39:59;;;;;;;6.20;4.60;;;;;;;3.50;74.22;100622.09;5074109;27;98999;-74
2021/04/16 02:42:25;;;;;;;4.53;3.97;;;;;;;3.58;74.18;100630.75;5056582;27;101549;-80
2021/04/16 02:44:50;;;;;;;5.00;4.27;;;;;;;3.61;73.86;100624.69;5053273;27;96881;-73
2021/04/16 02:47:16;;;;;;;6.03;4.10;;;;;;;3.63;73.81;100625.53;5035865;27;97327;-73
2021/04/16 02:49:42;;;;;;;5.47;4.57;;;;;;;3.61;73.58;100622.97;5039074;27;101625;-73
2021/04/16 02:52:08;;;;;;;4.97;4.20;;;;;;;3.57;73.90;100618.63;5064279;27;98078;-73
2021/04/16 02:54:33;;;;;;;7.00;4.50;;;;;;;3.52;73.94;100620.38;5038593;27;97087;-74
2021/04/16 02:56:59;;;;;;;8.67;5.90;;;;;;;3.44;74.01;100621.25;5036125;27;97091;-74
2021/04/16 02:59:25;;;;;;;8.97;4.47;;;;;;;3.53;74.01;100616.91;5070441;27;98171;-80
2021/04/16 03:01:51;;;;;;;4.53;4.13;;;;;;;3.57;74.23;100620.34;5045738;27;97834;-73
2021/04/16 03:04:17;;;;;;;5.37;4.60;;;;;;;3.56;74.63;100618.63;5050322;27;96976;-73
2021/04/16 03:06:43;;;;;;;5.00;4.47;;;;;;;3.52;74.28;100622.06;5055774;27;97270;-73
2021/04/16 03:09:09;;;;;;;5.60;4.77;;;;;;;3.61;74.16;100617.78;5056276;27;101370;-73
2021/04/16 03:11:35;;;;;;;7.40;5.20;;;;;;;3.62;74.17;100623.81;5073053;27;97721;-73
2021/04/16 03:14:01;;;;;;;6.93;4.37;;;;;;;3.57;74.41;100622.94;5053100;27;96881;-74
2021/04/16 03:16:28;;;;;;;6.47;4.33;;;;;;;3.63;74.07;100620.34;5070114;27;96852;-80
2021/04/16 03:18:56;;;;;;;5.77;4.13;;;;;;;3.68;73.64;100618.63;5056388;27;97840;-73
2021/04/16 03:21:22;;;;;;;5.03;4.37;;;;;;;3.70;73.94;100618.63;5045135;27;101605;-73
2021/04/16 03:23:48;;;;;;;5.73;4.63;;;;;;;3.62;73.96;100613.44;5049548;27;96624;-73
2021/04/16 03:26:13;;;;;;;4.90;4.40;;;;;;;3.65;73.70;100612.56;5046716;27;97231;-73
2021/04/16 03:28:39;;;;;;;7.30;4.80;;;;;;;3.61;74.53;100609.13;5072887;27;98412;-73
2021/04/16 03:31:05;;;;;;;5.20;4.50;;;;;;;3.68;73.66;100612.56;5056102;27;101340;-74
2021/04/16 03:33:31;;;;;;;6.03;4.93;;;;;;;3.69;73.84;100614.28;5072257;27;97794;-78
2021/04/16 03:35:56;;;;;;;6.10;4.50;;;;;;;3.57;74.04;100617.75;5073202;27;96784;-76
2021/04/16 03:38:22;;;;;;;5.47;4.50;;;;;;;3.58;73.89;100615.19;5055965;27;102045;-73
2021/04/16 03:40:47;;;;;;;6.23;4.33;;;;;;;3.58;74.36;100612.59;5073136;27;97801;-73
2021/04/16 03:43:14;;;;;;;5.83;5.00;;;;;;;3.57;74.47;100612.56;5055962;27;96720;-74
2021/04/16 03:45:39;;;;;;;7.97;5.23;;;;;;;3.56;74.20;100611.72;5055422;27;96944;-73
2021/04/16 03:48:05;;;;;;;6.63;4.50;;;;;;;3.55;74.59;100607.38;5034581;27;101697;-73
2021/04/16 03:50:33;;;;;;;4.70;4.30;;;;;;;3.49;74.32;100601.31;5045775;27;101145;-82
2021/04/16 03:52:59;;;;;;;6.57;4.50;;;;;;;3.47;74.63;100603.94;5087367;27;97276;-74
2021/04/16 03:55:28;;;;;;;6.23;4.70;;;;;;;3.47;75.03;100603.06;5052915;27;97249;-74
2021/04/16 03:57:54;;;;;;;5.17;4.67;;;;;;;3.47;75.25;100610.84;5053351;27;101807;-73
2021/04/16 04:00:25;;;;;;;5.57;4.53;;;;;;;3.44;75.07;100611.72;5038929;27;101114;-73
2021/04/16 04:02:50;;;;;;;5.53;4.90;;;;;;;3.51;74.95;100615.16;5072796;27;96719;-73
2021/04/16 04:05:17;;;;;;;6.17;4.60;;;;;;;3.57;75.07;100616.03;5052778;27;97395;-74
2021/04/16 04:07:42;;;;;;;6.10;4.70;;;;;;;3.55;74.92;100620.38;5070826;27;98016;-73
2021/04/16 04:10:09;;;;;;;5.63;4.87;;;;;;;3.50;75.37;100622.09;5043510;27;98039;-73
2021/04/16 04:12:34;;;;;;;9.20;5.40;;;;;;;3.55;75.06;100619.47;5017305;27;97488;-74
2021/04/16 04:15:00;;;;;;;6.23;5.07;;;;;;;3.59;75.03;100629.88;5064932;27;96845;-74
2021/04/16 04:17:28;;;;;;;7.00;5.53;;;;;;;3.62;75.21;100621.22;5051962;27;97421;-73
2021/04/16 04:19:54;;;;;;;7.83;5.77;;;;;;;3.63;74.98;100634.19;5047764;27;101370;-73
2021/04/16 04:22:20;;;;;;;8.60;5.23;;;;;;;3.62;75.21;100622.09;5055598;27;96989;-73
2021/04/16 04:24:46;;;;;;;5.30;4.67;;;;;;;3.63;75.04;100622.94;5034619;27;97459;-74
2021/04/16 04:27:12;;;;;;;5.23;4.73;;;;;;;3.72;75.08;100627.25;5051866;27;98521;-73
2021/04/16 04:29:38;;;;;;;6.63;4.87;;;;;;;3.69;75.11;100616.88;5072172;27;97874;-73
2021/04/16 04:32:04;;;;;;;6.63;4.93;;;;;;;3.58;75.31;100617.78;5072663;27;97435;-73
2021/04/16 04:34:30;;;;;;;6.70;4.90;;;;;;;3.66;75.39;100619.47;5037981;27;97007;-82
2021/04/16 04:36:57;;;;;;;5.83;4.97;;;;;;;3.65;75.42;100626.41;5074327;27;98650;-73
2021/04/16 04:39:29;;;;;;;6.03;5.20;;;;;;;3.73;75.35;100621.22;5042101;27;100981;-73
2021/04/16 04:41:54;;;;;;;8.48;5.53;;;;;;;3.68;75.51;100625.53;5040435;27;97212;-73
2021/04/16 04:44:20;;;;;;;6.50;5.60;;;;;;;3.71;75.76;100622.94;5042042;27;96832;-73
2021/04/16 04:46:46;;;;;;;6.33;5.60;;;;;;;3.78;75.63;100628.13;5021421;27;100612;-73
2021/04/16 04:49:12;;;;;;;7.97;5.13;;;;;;;3.73;75.38;100626.41;5034087;27;101289;-74
2021/04/16 04:51:39;;;;;;;7.83;5.50;;;;;;;3.71;75.55;100623.81;5075254;27;96990;-73
2021/04/16 04:54:06;;;;;;;5.80;5.20;;;;;;;3.68;75.67;100629.00;5055754;27;97190;-74
2021/04/16 04:56:32;;;;;;;5.93;4.87;;;;;;;3.71;75.63;100622.94;5040740;27;101315;-74
2021/04/16 04:58:57;;;;;;;7.07;5.70;;;;;;;3.68;75.87;100623.81;5059084;27;97840;-74
2021/04/16 05:01:23;;;;;;;8.37;6.00;;;;;;;3.70;75.83;100629.88;5037854;27;97433;-72
2021/04/16 05:03:49;;;;;;;7.87;5.83;;;;;;;3.76;75.72;100629.00;5047572;27;97385;-74
2021/04/16 05:06:14;;;;;;;6.80;6.10;;;;;;;3.81;75.35;100629.84;5037385;27;101144;-73
2021/04/16 05:08:40;;;;;;;6.77;5.00;;;;;;;3.81;75.97;100635.03;5067649;27;101406;-73
2021/04/16 05:11:08;;;;;;;6.10;5.20;;;;;;;3.76;75.60;100639.41;5058814;27;97020;-73
2021/04/16 05:13:33;;;;;;;6.23;5.20;;;;;;;3.73;76.03;100632.47;5075107;27;96858;-74
2021/04/16 05:15:59;;;;;;;7.90;5.83;;;;;;;3.75;75.74;100633.34;5057887;27;100939;-74
2021/04/16 05:18:25;;;;;;;7.27;6.03;;;;;;;3.76;75.96;100635.06;5076111;27;97893;-74
2021/04/16 05:20:50;;;;;;;7.43;5.67;;;;;;;3.78;76.08;100635.03;5037294;27;96764;-73
2021/04/16 05:23:16;;;;;;;8.43;5.37;;;;;;;3.82;75.71;100635.03;5086869;27;97347;-73
2021/04/16 05:25:41;;;;;;;6.70;5.33;;;;;;;3.81;75.84;100633.34;5053023;27;101357;-74
2021/04/16 05:28:07;;;;;;;7.07;6.03;;;;;;;3.82;75.96;100632.44;5037670;27;101365;-73
2021/04/16 05:30:33;;;;;;;5.77;5.07;;;;;;;3.91;75.71;100633.31;5057153;27;96662;-74
2021/04/16 05:33:00;;;;;;;7.20;4.90;;;;;;;3.90;75.88;100636.75;5074610;27;96694;-74
2021/04/16 05:35:25;;;;;;;7.20;5.20;;;;;;;3.85;76.05;100640.25;5045295;27;97453;-74
2021/04/16 05:37:55;;;;;;;7.63;5.37;;;;;;;3.91;76.05;100635.91;5046622;27;101272;-73
2021/04/16 05:40:21;;;;;;;5.57;4.97;;;;;;;3.97;75.81;100641.09;5065260;27;97062;-73
2021/04/16 05:42:46;;;;;;;7.03;5.43;;;;;;;3.92;76.00;100638.47;5050022;27;97386;-73
2021/04/16 05:45:13;;;;;;;5.90;5.30;;;;;;;3.90;75.82;100640.25;5069853;27;98822;-74
2021/04/16 05:47:38;;;;;;;7.67;5.37;;;;;;;3.91;76.35;100639.38;5070054;27;99654;-74
2021/04/16 05:50:05;;;;;;;8.73;6.70;;;;;;;3.95;76.33;100645.41;5037750;27;97458;-74
2021/04/16 05:52:31;;;;;;;8.97;6.13;;;;;;;3.94;76.59;100649.75;5051180;27;97264;-82
2021/04/16 05:54:56;;;;;;;9.77;6.43;;;;;;;3.98;76.20;100642.81;5053894;27;101653;-78
2021/04/16 05:57:22;;;;;;;8.43;6.40;;;;;;;3.98;76.00;100645.41;5068712;27;97399;-74
2021/04/16 05:59:47;;;;;;;7.73;5.30;;;;;;;3.99;76.23;100635.03;5056867;27;96653;-74
2021/04/16 06:02:27;;;;;;;6.20;5.60;;;;;;;3.96;76.17;100632.44;5055011;27;96916;-74
2021/04/16 06:04:53;;;;;;;9.33;5.10;;;;;;;3.95;76.47;100635.88;5052818;27;100446;-74
2021/04/16 06:07:20;;;;;;;7.23;5.83;;;;;;;3.94;76.51;100639.34;5056290;27;101337;-74
2021/04/16 06:09:46;;;;;;;7.60;6.10;;;;;;;4.02;76.16;100647.16;5056719;27;97332;-74
2021/04/16 06:12:12;;;;;;;7.47;5.63;;;;;;;3.93;76.56;100650.63;5057479;27;97201;-74
2021/04/16 06:14:40;;;;;;;8.43;6.33;;;;;;;4.01;76.53;100643.66;5046999;27;101193;-74
2021/04/16 06:17:06;;;;;;;7.70;5.90;;;;;;;4.06;76.24;100643.66;5074063;27;97422;-74
2021/04/16 06:19:31;;;;;;;8.07;6.10;;;;;;;4.05;76.39;100652.34;5074170;27;96565;-82
2021/04/16 06:21:57;;;;;;;13.63;10.43;;;;;;;4.10;76.10;100642.78;5055373;27;97117;-78
2021/04/16 06:24:22;;;;;;;11.43;8.87;;;;;;;4.08;76.04;100647.13;5074491;27;97997;-73
2021/04/16 06:26:48;;;;;;;8.23;6.40;;;;;;;4.05;76.58;100642.81;5073299;27;97857;-74
2021/04/16 06:29:13;;;;;;;7.53;6.60;;;;;;;4.16;76.02;100640.19;5053558;27;96843;-74
2021/04/16 06:31:39;;;;;;;7.60;6.33;;;;;;;4.08;76.55;100634.13;5049012;27;96919;-74
2021/04/16 06:34:04;;;;;;;8.87;6.60;;;;;;;4.14;76.28;100631.53;5069005;27;98129;-74
2021/04/16 06:36:30;;;;;;;6.83;5.30;;;;;;;4.18;76.34;100640.16;5064523;27;101124;-80
2021/04/16 06:38:56;;;;;;;8.07;6.10;;;;;;;4.18;76.29;100632.38;5034966;27;97547;-74
2021/04/16 06:41:24;;;;;;;8.30;6.10;;;;;;;4.26;76.25;100628.88;5064852;27;97006;-74
2021/04/16 06:43:56;;;;;;;9.23;6.60;;;;;;;4.29;75.98;100634.06;5063632;27;97476;-74
2021/04/16 06:46:34;;;;;;;7.38;6.07;;;;;;;4.25;76.29;100636.69;5050575;27;98049;-74
2021/04/16 06:49:04;;;;;;;6.33;5.60;;;;;;;4.21;76.58;100637.56;5049175;27;96916;-74
2021/04/16 06:51:32;;;;;;;6.83;6.10;;;;;;;4.16;76.69;100628.91;5039745;27;97112;-81
2021/04/16 06:54:01;;;;;;;6.73;5.57;;;;;;;4.25;76.59;100634.97;5064474;27;98586;-74
2021/04/16 06:56:34;;;;;;;7.37;6.10;;;;;;;4.37;76.33;100636.66;5066407;27;99243;-79
2021/04/16 06:59:07;;;;;;;7.57;5.63;;;;;;;4.35;76.26;100637.53;5035606;27;97208;-76
2021/04/16 07:01:46;;;;;;;7.30;5.97;;;;;;;4.42;76.04;100629.69;5045177;27;96964;-82
2021/04/16 07:04:32;;;;;;;6.60;5.53;;;;;;;4.43;76.46;100643.56;5029518;27;101290;-75
2021/04/16 07:07:22;;;;;;;7.73;5.50;;;;;;;4.49;76.26;100636.59;5078235;27;98651;-74
2021/04/16 07:09:51;;;;;;;6.07;5.47;;;;;;;4.44;76.45;100640.94;5060300;27;97100;-73
2021/04/16 07:12:19;;;;;;;7.47;5.10;;;;;;;4.61;75.74;100642.63;5069449;27;97131;-74
2021/04/16 07:14:51;;;;;;;5.53;4.93;;;;;;;4.51;76.14;100650.47;5072789;27;97995;-74
2021/04/16 07:17:20;;;;;;;7.22;5.18;;;;;;;4.58;76.43;100640.03;5055906;27;97941;-74
2021/04/16 07:19:45;;;;;;;6.17;5.00;;;;;;;4.53;76.12;100642.63;5072056;27;97097;-74
2021/04/16 07:22:22;;;;;;;7.07;4.60;;;;;;;4.64;75.91;100648.66;5049440;27;97300;-74
2021/04/16 07:24:49;;;;;;;5.50;4.50;;;;;;;4.67;75.88;100650.38;5064893;27;101514;-75
2021/04/16 07:27:41;;;;;;;4.73;3.93;;;;;;;4.51;76.13;100647.84;5038869;27;101300;-74
2021/04/16 07:30:08;;;;;;;5.10;4.10;;;;;;;4.65;76.04;100649.50;5069712;27;97078;-75
2021/04/16 07:32:40;;;;;;;5.97;4.67;;;;;;;4.65;76.12;100646.91;5055353;27;97200;-84
2021/04/16 07:35:18;;;;;;;5.50;4.30;;;;;;;4.64;76.10;100646.06;5020393;27;101485;-73
2021/04/16 07:37:46;;;;;;;4.53;3.57;;;;;;;4.67;75.99;100645.19;5082469;27;97905;-75
2021/04/16 07:40:25;;;;;;;6.67;4.17;;;;;;;4.74;75.83;100639.06;5052110;27;97078;-75
2021/04/16 07:42:51;;;;;;;6.03;4.23;;;;;;;4.71;75.63;100637.38;5048000;27;96912;-73
2021/04/16 07:45:19;;;;;;;5.40;4.00;;;;;;;4.68;76.44;100646.91;5038596;27;101649;-74
2021/04/16 07:47:46;;;;;;;5.23;4.67;;;;;;;4.70;76.24;100633.03;5090992;27;97969;-74
2021/04/16 07:50:30;;;;;;;4.83;3.77;;;;;;;4.79;75.52;100642.50;5035008;27;96762;-74
2021/04/16 07:52:56;;;;;;;4.33;3.60;;;;;;;4.73;75.52;100643.41;5069828;27;97026;-76
2021/04/16 07:55:30;;;;;;;5.93;4.07;;;;;;;4.78;75.31;100650.34;5034603;27;101731;-78
2021/04/16 07:58:05;;;;;;;5.87;3.70;;;;;;;4.71;75.82;100652.09;5040255;27;97942;-74
2021/04/16 08:00:39;;;;;;;5.03;4.13;;;;;;;4.81;76.02;100652.94;5052142;27;97091;-74
2021/04/16 08:03:08;;;;;;;5.07;4.17;;;;;;;4.83;75.70;100654.66;5046934;27;97121;-75
2021/04/16 08:05:48;;;;;;;5.07;3.60;;;;;;;4.81;75.63;100658.13;5048637;27;101322;-81
2021/04/16 08:08:21;;;;;;;8.40;3.93;;;;;;;4.72;75.88;100659.91;5026385;27;98534;-75
2021/04/16 08:10:49;;;;;;;5.28;3.85;;;;;;;4.82;75.77;100644.25;5030742;27;97335;-75
2021/04/16 08:13:20;;;;;;;6.17;4.40;;;;;;;4.82;75.75;100654.66;5049174;27;96834;-76
2021/04/16 08:15:46;;;;;;;5.87;4.80;;;;;;;4.85;75.55;100644.22;5035632;27;97481;-76
2021/04/16 08:18:18;;;;;;;4.83;4.10;;;;;;;4.82;75.93;100649.44;5033489;27;102369;-75
2021/04/16 08:21:07;;;;;;;7.53;4.07;;;;;;;4.85;75.24;100647.69;5068237;27;97046;-76
2021/04/16 08:23:47;;;;;;;6.87;5.10;;;;;;;4.85;74.86;100645.06;5048792;27;97202;-81
2021/04/16 08:26:14;;;;;;;25.00;14.40;;;;;;;4.84;74.64;100656.38;5060137;27;98235;-76
2021/04/16 08:28:47;;;;;;;11.70;7.13;;;;;;;4.80;75.21;100653.78;5034205;27;100874;-76
2021/04/16 08:31:18;;;;;;;7.80;5.23;;;;;;;4.86;75.54;100648.53;5052504;27;96761;-76
2021/04/16 08:33:50;;;;;;;6.00;4.63;;;;;;;4.86;75.23;100652.03;5023777;27;97332;-76
2021/04/16 08:36:20;;;;;;;6.93;5.50;;;;;;;4.88;75.50;100657.22;5033837;27;100822;-77
2021/04/16 08:39:09;;;;;;;7.90;5.17;;;;;;;4.81;75.47;100663.34;5051789;27;97917;-75
2021/04/16 08:41:42;;;;;;;7.57;5.60;;;;;;;4.82;75.42;100654.66;5051085;27;96728;-74
2021/04/16 08:44:11;;;;;;;6.57;5.43;;;;;;;4.80;75.41;100665.06;5023978;27;97090;-75
2021/04/16 08:46:46;;;;;;;9.87;6.03;;;;;;;4.77;75.40;100665.09;5049391;27;98095;-81
2021/04/16 08:49:16;;;;;;;10.60;6.70;;;;;;;4.81;75.22;100665.94;5051274;27;101252;-75
2021/04/16 08:51:45;;;;;;;8.67;6.67;;;;;;;4.85;75.17;100673.69;5086857;27;97049;-75
2021/04/16 08:54:16;;;;;;;8.93;6.80;;;;;;;4.86;76.37;100666.75;5051450;27;97082;-75
2021/04/16 08:57:05;;;;;;;10.63;6.87;;;;;;;4.90;75.33;100665.88;5066549;27;98121;-76
2021/04/16 08:59:54;;;;;;;11.20;7.10;;;;;;;4.91;75.36;100673.66;5038219;27;101900;-76
2021/04/16 09:02:25;;;;;;;14.47;9.03;;;;;;;5.04;75.19;100677.06;5077593;27;97452;-75
2021/04/16 09:05:21;;;;;;;10.00;7.33;;;;;;;5.02;75.07;100676.22;5051723;27;97059;-76
2021/04/16 09:08:04;;;;;;;14.83;8.77;;;;;;;5.03;75.34;100675.31;5048025;27;101509;-75
2021/04/16 09:10:29;;;;;;;13.00;8.33;;;;;;;5.16;75.19;100678.75;5068813;27;98415;-76
2021/04/16 09:13:00;;;;;;;11.50;8.00;;;;;;;5.12;75.00;100675.31;5049422;27;97795;-76
2021/04/16 09:15:25;;;;;;;12.73;8.47;;;;;;;5.13;75.08;100669.22;5034609;27;96947;-76
2021/04/16 09:17:51;;;;;;;14.50;8.93;;;;;;;5.12;75.28;100666.59;5050263;27;101532;-76
2021/04/16 09:20:36;;;;;;;10.13;7.20;;;;;;;5.20;74.61;100665.69;5050388;27;101358;-76
2021/04/16 09:23:04;;;;;;;11.83;8.43;;;;;;;5.18;75.17;100667.44;5037393;27;96955;-77
2021/04/16 09:25:41;;;;;;;13.03;7.73;;;;;;;5.26;75.06;100675.19;5055124;27;97441;-76
2021/04/16 09:28:22;;;;;;;9.13;6.70;;;;;;;5.20;74.63;100670.88;5050459;27;101131;-78
2021/04/16 09:30:56;;;;;;;12.20;8.63;;;;;;;5.29;74.89;100672.56;5071779;27;97574;-76
2021/04/16 09:33:38;;;;;;;17.87;8.43;;;;;;;5.38;74.51;100669.03;5051594;27;97298;-75
2021/04/16 09:36:05;;;;;;;13.32;7.53;;;;;;;5.44;74.29;100671.63;5067880;27;96831;-76
2021/04/16 09:38:34;;;;;;;19.60;8.10;;;;;;;5.45;74.45;100681.16;5050697;27;97900;-80
2021/04/16 09:41:17;;;;;;;13.73;7.37;;;;;;;5.42;74.64;100676.81;5045880;27;100394;-77
2021/04/16 09:43:44;;;;;;;8.77;5.90;;;;;;;5.39;74.41;100670.78;5051187;27;97066;-78
2021/04/16 09:46:35;;;;;;;8.90;5.97;;;;;;;5.50;74.58;100676.78;5034348;27;97160;-77
2021/04/16 09:49:24;;;;;;;9.83;5.83;;;;;;;5.51;74.07;100675.03;5070594;27;98577;-77
2021/04/16 09:51:51;;;;;;;10.83;5.67;;;;;;;5.54;74.15;100681.06;5069639;27;101219;-76
2021/04/16 09:54:20;;;;;;;6.20;3.80;;;;;;;5.55;73.15;100685.41;5056235;27;96797;-76
2021/04/16 09:57:08;;;;;;;6.13;3.90;;;;;;;5.50;73.26;100688.91;5053729;27;97109;-75
2021/04/16 09:59:34;;;;;;;4.33;3.30;;;;;;;5.51;73.63;100691.50;5032425;27;99916;-76
2021/04/16 10:02:12;;;;;;;6.63;3.67;;;;;;;5.49;73.65;100695.00;5070666;27;97781;-76
2021/04/16 10:04:50;;;;;;;4.50;3.00;;;;;;;5.48;73.72;100693.28;5057351;27;96806;-82
2021/04/16 10:07:19;;;;;;;5.57;3.70;;;;;;;5.44;74.02;100698.50;5069271;27;97349;-77
2021/04/16 10:09:44;;;;;;;6.20;3.23;;;;;;;5.40;74.12;100688.13;5054376;27;97945;-76
2021/04/16 10:12:24;;;;;;;5.27;3.43;;;;;;;5.34;73.81;100695.97;5040280;27;101508;-77
2021/04/16 10:14:50;;;;;;;5.27;3.50;;;;;;;5.37;73.93;100694.22;5069864;27;97315;-77
2021/04/16 10:17:15;;;;;;;6.13;3.70;;;;;;;5.31;73.92;100686.44;5082616;27;97381;-76
2021/04/16 10:19:49;;;;;;;7.50;3.77;;;;;;;5.36;73.98;100686.44;5046510;27;100654;-79
2021/04/16 10:22:23;;;;;;;5.10;3.90;;;;;;;5.37;73.65;100694.22;5068333;27;97819;-76
2021/04/16 10:37:11;;;;;;;6.93;4.55;;;;;;;5.50;73.95;100674.19;5052744;27;97447;-80
2021/04/16 11:08:07;;;;;;;10.07;6.03;;;;;;;5.96;73.53;100655.53;5067914;27;101040;-76
2021/04/16 12:40:57;;;;;;;11.40;7.37;;;;;;;5.97;73.64;100683.34;5068972;27;97276;-74
2021/04/16 12:43:24;;;;;;;12.60;6.80;;;;;;;6.00;73.71;100678.13;5052060;27;101620;-74
2021/04/16 12:45:55;;;;;;;15.43;6.80;;;;;;;6.01;73.39;100686.78;5050489;27;101659;-74
2021/04/16 12:48:22;;;;;;;9.43;6.10;;;;;;;5.99;73.55;100678.09;5052121;27;97220;-75
2021/04/16 12:50:48;;;;;;;13.47;7.10;;;;;;;5.93;73.39;100686.84;5037124;27;97057;-74
2021/04/16 12:53:13;;;;;;;14.00;7.80;;;;;;;6.00;73.81;100688.53;5051040;27;101076;-74
2021/04/16 12:55:39;;;;;;;16.43;7.53;;;;;;;6.00;73.37;100685.06;5064088;27;97874;-75
2021/04/16 12:58:07;;;;;;;11.90;7.57;;;;;;;5.97;73.39;100672.06;5053226;27;96711;-74
2021/04/16 13:00:41;;;;;;;15.33;7.30;;;;;;;6.10;73.33;100674.53;5067144;27;96889;-77
2021/04/16 13:03:09;;;;;;;13.90;7.20;;;;;;;6.23;72.99;100675.28;5043209;27;98459;-75
2021/04/16 13:05:35;;;;;;;11.03;6.83;;;;;;;6.19;73.23;100678.78;5055844;27;97926;-75
2021/04/16 13:08:02;;;;;;;12.00;7.33;;;;;;;6.07;72.98;100669.34;5054685;27;96913;-77
2021/04/16 13:10:28;;;;;;;16.90;7.53;;;;;;;6.08;73.02;100670.22;5035871;27;96868;-76
2021/04/16 13:12:54;;;;;;;13.00;6.80;;;;;;;5.97;73.24;100656.44;5051027;27;97962;-75
2021/04/16 13:15:20;;;;;;;9.90;5.87;;;;;;;6.15;72.47;100656.25;5044918;27;100809;-75
2021/04/16 13:17:49;;;;;;;11.97;6.60;;;;;;;6.05;71.89;100660.69;5072032;27;97506;-77
2021/04/16 13:20:17;;;;;;;14.90;6.77;;;;;;;6.00;72.43;100666.81;5072319;27;97402;-76
2021/04/16 13:22:44;;;;;;;11.67;6.90;;;;;;;5.90;72.69;100659.06;5051273;27;100641;-81
2021/04/16 13:25:11;;;;;;;12.87;6.87;;;;;;;6.02;71.99;100652.00;5035551;27;101398;-76
2021/04/16 13:27:37;;;;;;;21.37;11.43;;;;;;;5.99;72.33;100654.66;5065954;27;97234;-76
2021/04/16 13:30:05;;;;;;;12.63;7.70;;;;;;;5.89;72.68;100653.84;5044664;27;97228;-76
2021/04/16 13:32:36;;;;;;;12.87;7.23;;;;;;;5.98;73.40;100656.41;5045698;27;97842;-79
2021/04/16 13:35:02;;;;;;;11.23;7.57;;;;;;;6.10;72.36;100653.66;5041519;27;101300;-78
2021/04/16 13:37:32;;;;;;;11.60;7.07;;;;;;;6.04;72.18;100650.28;5031936;27;96796;-76
2021/04/16 13:39:58;;;;;;;13.23;7.03;;;;;;;6.00;72.31;100646.84;5073779;27;96923;-77
2021/04/16 13:42:24;;;;;;;10.60;6.43;;;;;;;6.09;72.24;100645.88;5040746;27;100954;-74
2021/04/16 13:44:49;;;;;;;18.00;7.27;;;;;;;6.00;73.11;100645.97;5056394;27;101026;-75
2021/04/16 13:47:26;;;;;;;12.63;6.70;;;;;;;5.98;73.34;100653.78;5057286;27;96867;-74
2021/04/16 13:49:55;;;;;;;12.67;7.13;;;;;;;5.93;73.15;100652.09;5042066;27;97258;-74